Time;durP1;ratioP1;P1;durP2;ratioP2;P2;SDS_P1;SDS_P2;PMS_P1;PMS_P2;Temp;Humidity;BMP_temperature;BMP_pressure;BME280_temperature;BME280_humidity;BME280_pressure;Samples;Min_cycle;Max_cycle;Signal;HPM_P1;HPM_P2
2023/01/17 00:02:02;;;;;;;3.10;1.30;;;4.20;76.30;;;3.54;69.19;95038.94;5055189;28;20445;-75
2023/01/17 00:10:06;;;;;;;1.00;0.90;;;4.20;75.10;;;3.50;69.03;95035.13;4999959;28;20469;-73
2023/01/17 00:12:34;;;;;;;3.57;1.30;;;4.10;74.60;;;3.48;68.92;95018.56;5068196;28;20440;-72
2023/01/17 00:15:01;;;;;;;1.80;0.80;;;4.10;74.80;;;3.28;69.86;95025.22;5057129;28;20456;-78
2023/01/17 00:17:30;;;;;;;1.57;1.07;;;4.00;74.90;;;3.30;69.52;95007.09;5039883;28;20781;-76
2023/01/17 01:35:37;;;;;;;2.63;1.40;;;3.10;75.00;;;2.69;68.91;95125.00;5031077;28;20446;-76
2023/01/17 01:38:04;;;;;;;2.00;1.67;;;3.20;74.60;;;2.64;68.55;95106.22;5046147;28;20952;-75
2023/01/17 01:40:31;;;;;;;3.03;1.73;;;3.30;74.20;;;2.80;68.97;95134.78;5044822;28;20476;-77
2023/01/17 01:43:04;;;;;;;1.20;1.10;;;3.30;74.30;;;2.79;68.21;95124.38;5052799;28;20482;-77
2023/01/17 01:45:33;;;;;;;1.07;0.80;;;3.30;74.00;;;2.74;69.08;95116.28;5034149;28;20460;-77
2023/01/17 01:48:05;;;;;;;1.10;1.00;;;3.30;74.30;;;2.63;68.28;95099.25;5054795;28;20944;-75
2023/01/17 01:50:35;;;;;;;1.90;1.50;;;3.30;73.90;;;2.98;68.23;95138.34;5056423;28;20452;-77
2023/01/17 01:53:05;;;;;;;2.00;1.50;;;3.40;74.20;;;2.92;69.02;95133.94;5034290;28;20452;-79
2023/01/17 01:55:35;;;;;;;2.50;1.47;;;3.50;74.10;;;2.83;69.54;95137.00;5048925;28;20458;-77
2023/01/17 01:58:08;;;;;;;2.50;1.53;;;3.40;74.30;;;2.90;69.27;95126.19;5033556;28;20491;-81
2023/01/17 02:00:40;;;;;;;3.00;1.70;;;3.40;74.50;;;2.33;69.36;95028.31;5048838;28;20468;-77
2023/01/17 02:03:11;;;;;;;1.50;1.23;;;3.50;74.50;;;2.89;69.48;95123.75;5052236;28;20469;-79
2023/01/17 02:05:41;;;;;;;2.10;1.50;;;3.50;74.70;;;2.83;70.44;95150.34;5028496;28;20947;-77
2023/01/17 02:08:11;;;;;;;2.20;1.40;;;3.50;74.90;;;3.02;69.61;95152.81;5045689;28;20456;-78
2023/01/17 02:10:43;;;;;;;2.17;1.60;;;3.50;75.10;;;2.89;69.92;95137.09;5057797;28;20446;-78
2023/01/17 02:13:12;;;;;;;1.47;1.37;;;3.50;75.00;;;2.87;70.06;95131.19;5027829;28;20441;-74
2023/01/17 02:15:52;;;;;;;1.97;1.40;;;3.50;75.40;;;2.74;70.90;95137.63;5040658;28;20855;-75
2023/01/17 02:18:36;;;;;;;1.83;1.53;;;3.40;75.30;;;2.75;71.21;95149.91;5055196;28;20464;-74
2023/01/17 02:21:23;;;;;;;2.00;1.30;;;3.30;75.50;;;2.48;72.03;95159.22;5019446;28;20465;-74
2023/01/17 02:24:33;;;;;;;2.00;1.30;;;3.20;75.90;;;2.26;72.03;95132.34;5060834;28;20468;-75
2023/01/17 02:27:06;;;;;;;1.33;1.23;;;3.10;76.10;;;2.38;72.42;95154.47;5030069;28;20518;-74
2023/01/17 02:30:20;;;;;;;3.53;1.70;;;3.00;76.20;;;2.32;72.33;95151.94;5025381;28;20449;-78
2023/01/17 02:33:06;;;;;;;3.17;1.53;;;2.90;76.40;;;2.24;72.17;95139.78;5027690;28;20457;-76
2023/01/17 02:35:45;;;;;;;1.87;1.53;;;2.90;76.50;;;2.09;72.45;95142.94;5031533;28;20483;-75
2023/01/17 02:38:30;;;;;;;1.37;1.27;;;2.90;76.30;;;2.29;71.98;95158.56;5043580;28;20503;-76
2023/01/17 02:41:04;;;;;;;1.57;1.43;;;2.90;75.90;;;1.78;72.11;95075.66;5049182;28;20520;-79
2023/01/17 02:43:32;;;;;;;1.53;1.40;;;2.90;76.10;;;2.21;71.35;95157.06;5032256;28;20502;-73
2023/01/17 02:46:01;;;;;;;2.53;1.70;;;2.80;75.70;;;2.29;71.59;95163.06;5043487;28;20480;-75
2023/01/17 02:48:32;;;;;;;1.77;1.40;;;2.90;75.70;;;2.36;70.41;95148.56;5041449;28;20469;-73
2023/01/17 02:51:38;;;;;;;2.20;1.63;;;3.00;75.20;;;2.39;70.09;95157.97;5057104;28;21008;-75
2023/01/17 02:54:41;;;;;;;3.50;1.53;;;3.00;74.30;;;2.33;68.77;95151.72;5045147;28;20453;-78
2023/01/17 02:57:31;;;;;;;3.10;2.27;;;3.00;73.80;;;2.23;68.93;95138.97;5043422;28;20451;-77
2023/01/17 03:00:04;;;;;;;2.17;1.70;;;3.10;73.70;;;2.39;68.36;95157.97;5059734;28;20456;-76
2023/01/17 03:02:40;;;;;;;1.90;1.70;;;3.10;73.20;;;2.45;67.90;95165.00;5044035;28;20972;-79
2023/01/17 03:05:13;;;;;;;2.60;1.43;;;3.10;72.90;;;2.30;68.10;95143.38;5045548;28;20449;-75
2023/01/17 03:07:43;;;;;;;1.13;1.10;;;3.00;72.90;;;2.34;68.03;95155.16;5038272;28;20465;-74
2023/01/17 03:10:12;;;;;;;1.70;1.60;;;3.00;72.50;;;2.25;68.33;95166.19;5055511;28;20449;-72
2023/01/17 03:12:40;;;;;;;2.13;1.93;;;2.90;72.70;;;2.30;67.70;95162.03;5054904;28;20522;-73
2023/01/17 03:15:11;;;;;;;2.50;1.80;;;2.90;72.60;;;2.20;67.93;95170.59;5036378;28;20444;-73
2023/01/17 03:17:45;;;;;;;2.00;1.60;;;2.80;72.20;;;1.90;67.96;95156.38;5052757;28;20477;-79
2023/01/17 03:20:12;;;;;;;2.50;1.87;;;2.70;72.40;;;1.96;67.80;95173.25;5056873;28;20458;-76
2023/01/17 03:22:40;;;;;;;3.67;2.00;;;2.60;72.10;;;1.97;68.08;95182.84;5060531;28;20441;-78
2023/01/17 03:25:08;;;;;;;3.73;1.77;;;2.60;72.40;;;1.82;67.87;95180.66;5050745;28;20463;-77
2023/01/17 03:27:35;;;;;;;2.10;1.77;;;2.60;72.20;;;1.70;67.99;95178.78;5031573;28;20537;-75
2023/01/17 03:30:03;;;;;;;5.43;2.23;;;2.50;71.90;;;1.80;68.06;95204.03;5051424;28;20499;-78
2023/01/17 03:32:30;;;;;;;2.87;2.00;;;2.50;72.10;;;1.64;67.80;95194.84;5038629;28;20471;-77
2023/01/17 03:34:59;;;;;;;4.20;2.67;;;2.40;71.40;;;1.65;67.67;95212.44;5038891;28;20816;-77
2023/01/17 03:37:26;;;;;;;3.83;2.30;;;2.40;71.60;;;1.67;67.55;95199.75;5044558;28;20503;-74
2023/01/17 03:39:53;;;;;;;2.50;1.80;;;2.40;71.50;;;1.73;67.65;95221.94;5048563;28;20440;-76
2023/01/17 03:42:21;;;;;;;3.40;2.23;;;2.30;71.40;;;1.58;67.46;95190.44;5035732;28;20481;-75
2023/01/17 03:44:48;;;;;;;2.57;2.07;;;2.40;71.50;;;1.53;67.73;95205.25;5050123;28;20453;-75
2023/01/17 03:47:15;;;;;;;2.33;2.13;;;2.30;71.50;;;1.45;67.83;95202.09;5048755;28;20480;-74
2023/01/17 03:49:42;;;;;;;2.20;2.00;;;2.30;71.50;;;1.49;68.32;95213.91;5051067;28;20452;-76
2023/01/17 03:52:11;;;;;;;4.00;2.57;;;2.20;71.80;;;1.32;68.83;95195.94;5051805;28;20474;-77
2023/01/17 03:54:38;;;;;;;3.90;2.00;;;2.10;72.20;;;1.24;68.74;95206.88;5032022;28;20442;-77
2023/01/17 03:57:05;;;;;;;3.03;2.30;;;2.00;72.00;;;1.31;69.32;95217.44;5032273;28;20449;-76
2023/01/17 03:59:33;;;;;;;5.10;2.67;;;2.00;72.40;;;1.16;69.49;95226.63;5047397;28;20937;-74
2023/01/17 04:02:00;;;;;;;3.70;2.37;;;1.90;72.50;;;1.19;69.74;95228.03;5028744;28;20474;-77
2023/01/17 04:04:28;;;;;;;3.47;2.20;;;1.80;72.50;;;1.15;69.58;95218.88;5050434;28;20452;-77
2023/01/17 04:06:55;;;;;;;5.00;3.07;;;1.80;72.70;;;0.58;69.06;95135.72;5050487;28;20453;-80
2023/01/17 04:09:23;;;;;;;3.50;2.17;;;1.80;72.80;;;1.12;69.38;95212.94;5031832;28;20526;-76
2023/01/17 04:11:52;;;;;;;4.43;2.80;;;1.70;72.60;;;1.26;68.86;95226.06;5049441;28;20528;-83
2023/01/17 04:14:19;;;;;;;1.80;1.70;;;1.90;72.40;;;1.33;68.35;95216.19;5043145;28;20484;-73
2023/01/17 04:16:46;;;;;;;3.90;2.80;;;2.00;72.10;;;0.89;68.01;95154.38;5040932;28;20460;-76
2023/01/17 04:19:14;;;;;;;4.47;2.00;;;2.10;71.90;;;1.49;68.01;95224.56;5045682;28;20501;-77
2023/01/17 04:21:41;;;;;;;3.97;2.73;;;2.10;71.90;;;1.34;68.43;95217.78;5052941;28;20479;-79
2023/01/17 04:24:08;;;;;;;2.83;2.50;;;2.20;71.80;;;1.16;68.07;95188.59;5049543;28;20894;-75
2023/01/17 04:26:37;;;;;;;3.50;2.60;;;2.10;71.70;;;1.29;68.37;95209.69;5036409;28;20454;-76
2023/01/17 04:29:05;;;;;;;3.17;2.33;;;2.00;71.80;;;1.16;68.90;95194.69;5043735;28;20460;-76
2023/01/17 04:31:32;;;;;;;3.13;2.63;;;2.00;71.90;;;1.19;68.73;95214.72;5032723;28;20463;-76
2023/01/17 04:34:00;;;;;;;3.63;2.60;;;2.00;71.90;;;0.89;69.07;95192.38;5048522;28;20499;-75
2023/01/17 04:36:27;;;;;;;3.63;2.40;;;1.90;72.30;;;1.00;69.66;95206.78;5052003;28;20473;-74
2023/01/17 04:38:54;;;;;;;5.70;3.50;;;1.80;72.50;;;1.13;69.64;95249.16;5050981;28;20460;-77
2023/01/17 04:41:21;;;;;;;4.90;3.77;;;1.70;72.60;;;0.86;69.84;95215.97;5033668;28;20484;-77
2023/01/17 04:43:50;;;;;;;4.37;2.90;;;1.70;72.90;;;1.03;70.17;95238.25;5032424;28;20451;-76
2023/01/17 04:46:17;;;;;;;5.87;3.20;;;1.60;73.00;;;0.45;70.70;95173.88;5049965;28;20449;-75
2023/01/17 04:48:44;;;;;;;3.97;3.20;;;1.50;73.50;;;0.85;70.92;95244.38;5031209;28;20539;-78
2023/01/17 04:51:13;;;;;;;3.30;2.70;;;1.40;73.70;;;0.70;71.29;95228.81;5040217;28;20501;-78
2023/01/17 04:53:41;;;;;;;4.50;3.07;;;1.30;73.70;;;0.61;71.13;95230.13;5035955;28;20448;-76
2023/01/17 04:56:09;;;;;;;4.33;3.30;;;1.40;74.00;;;0.78;70.90;95233.81;5033026;28;20658;-74
2023/01/17 04:58:37;;;;;;;2.83;2.60;;;1.40;74.20;;;0.94;70.45;95255.53;5049274;28;20461;-73
2023/01/17 05:01:08;;;;;;;4.17;3.03;;;1.50;73.80;;;0.99;70.63;95258.34;5031839;28;20483;-75
2023/01/17 05:03:36;;;;;;;6.03;2.67;;;1.60;73.70;;;1.13;69.66;95267.75;5035126;28;20456;-75
2023/01/17 05:06:04;;;;;;;4.00;2.83;;;1.70;73.40;;;1.10;70.32;95270.09;5050370;28;20466;-74
2023/01/17 05:08:31;;;;;;;4.30;2.97;;;1.60;73.40;;;0.97;69.92;95263.06;5056142;28;20453;-75
2023/01/17 05:10:59;;;;;;;4.53;2.50;;;1.60;73.50;;;0.98;70.13;95262.84;5037004;28;20456;-75
2023/01/17 05:13:26;;;;;;;3.50;2.97;;;1.60;73.50;;;0.92;70.43;95268.22;5069867;28;20452;-76
2023/01/17 05:15:54;;;;;;;6.93;4.03;;;1.50;73.60;;;0.88;70.35;95267.06;5033787;28;20433;-75
2023/01/17 05:18:22;;;;;;;3.53;2.63;;;1.50;73.60;;;1.16;69.95;95271.03;5036800;28;20469;-75
2023/01/17 05:20:49;;;;;;;3.80;2.87;;;1.60;73.80;;;0.78;70.36;95241.78;5056493;28;20480;-77
2023/01/17 05:23:17;;;;;;;6.97;3.20;;;1.60;73.60;;;0.81;70.73;95273.25;5034606;28;20797;-76
2023/01/17 05:25:44;;;;;;;5.73;3.50;;;1.40;73.50;;;0.77;71.09;95288.00;5051858;28;20468;-76
2023/01/17 05:28:13;;;;;;;5.63;2.67;;;1.40;73.90;;;0.64;71.51;95256.25;5034849;28;20433;-74
2023/01/17 05:30:40;;;;;;;4.80;3.40;;;1.30;74.20;;;0.88;71.26;95267.06;5034302;28;20443;-75
2023/01/17 05:33:09;;;;;;;4.20;3.43;;;1.30;74.50;;;0.90;70.95;95267.66;5039394;28;20442;-73
2023/01/17 05:35:38;;;;;;;4.80;3.50;;;1.40;74.30;;;0.82;70.97;95256.25;5044991;28;20453;-74
2023/01/17 05:38:05;;;;;;;5.93;3.30;;;1.50;74.40;;;1.10;70.64;95281.50;5036868;28;20940;-76
2023/01/17 05:40:34;;;;;;;6.30;3.10;;;1.60;74.40;;;1.22;70.64;95281.59;5049179;28;20483;-80
2023/01/17 05:43:03;;;;;;;5.63;3.40;;;1.70;74.20;;;1.32;69.93;95290.88;5035081;28;20465;-79
2023/01/17 05:45:32;;;;;;;5.50;3.57;;;1.80;73.90;;;1.41;69.37;95276.25;5051795;28;20502;-80
2023/01/17 05:47:59;;;;;;;5.60;2.93;;;1.90;73.70;;;1.39;69.08;95273.00;5027870;28;20445;-79
2023/01/17 05:50:30;;;;;;;4.00;2.87;;;2.00;73.50;;;1.51;69.33;95286.34;5023540;28;20878;-81
2023/01/17 05:53:00;;;;;;;4.97;3.60;;;1.90;73.50;;;1.55;69.34;95288.34;5041378;28;20449;-79
2023/01/17 05:55:30;;;;;;;3.97;3.50;;;1.90;73.70;;;1.54;68.96;95276.06;5045487;28;20476;-80
2023/01/17 05:57:57;;;;;;;4.43;3.53;;;2.00;73.60;;;1.21;69.12;95234.72;5025221;28;20473;-82
2023/01/17 06:00:25;;;;;;;8.60;3.93;;;2.10;73.30;;;1.72;69.08;95293.03;5029490;28;21552;-75
2023/01/17 06:02:53;;;;;;;8.90;5.43;;;2.20;73.50;;;1.63;69.05;95297.84;5052414;28;20490;-73
2023/01/17 06:05:21;;;;;;;4.43;3.30;;;2.20;73.30;;;1.70;68.66;95298.56;5055868;28;20467;-73
2023/01/17 06:07:48;;;;;;;4.77;3.90;;;2.20;73.40;;;1.76;68.83;95288.06;5060160;28;20461;-82
2023/01/17 06:10:19;;;;;;;5.53;3.40;;;2.20;73.20;;;1.83;68.53;95288.78;5050746;28;20464;-79
2023/01/17 06:12:47;;;;;;;4.33;3.93;;;2.30;73.20;;;1.77;68.39;95276.38;5021666;28;20462;-72
2023/01/17 06:15:17;;;;;;;6.73;3.90;;;2.30;73.30;;;1.95;68.61;95292.28;5050673;28;20462;-72
2023/01/17 06:17:44;;;;;;;6.27;2.90;;;2.30;73.20;;;2.02;67.79;95292.19;5025212;28;20454;-72
2023/01/17 06:20:12;;;;;;;10.70;3.97;;;2.40;73.10;;;1.88;68.44;95286.22;5027034;28;20480;-70
2023/01/17 06:22:40;;;;;;;5.27;3.80;;;2.40;73.00;;;1.96;68.27;95299.25;5043084;28;20480;-72
2023/01/17 06:25:10;;;;;;;6.57;3.73;;;2.40;72.70;;;2.03;67.99;95298.31;5022402;28;20965;-73
2023/01/17 06:27:39;;;;;;;5.30;4.20;;;2.50;72.90;;;2.20;67.32;95298.47;5023662;28;20461;-72
2023/01/17 06:30:08;;;;;;;4.73;3.77;;;2.60;72.70;;;1.91;67.06;95279.66;5039313;28;20461;-71
2023/01/17 06:32:35;;;;;;;7.03;3.40;;;2.60;72.40;;;1.92;67.87;95300.75;5037608;28;20469;-72
2023/01/17 06:35:02;;;;;;;6.37;4.10;;;2.60;72.40;;;1.67;69.51;95317.66;5056966;28;20523;-71
2023/01/17 06:37:30;;;;;;;5.90;3.97;;;2.40;73.10;;;1.81;70.72;95296.97;5040962;28;20452;-73
2023/01/17 06:39:57;;;;;;;8.50;4.67;;;2.30;74.30;;;1.86;70.74;95309.63;5024522;28;21254;-71
2023/01/17 06:42:24;;;;;;;4.00;3.47;;;2.30;74.60;;;1.98;70.80;95317.66;5047652;28;20563;-72
2023/01/17 06:44:53;;;;;;;9.17;6.20;;;2.40;75.00;;;1.60;72.79;95262.88;5022975;28;20653;-72
2023/01/17 06:47:20;;;;;;;7.50;3.97;;;2.40;76.10;;;1.97;72.44;95316.00;5049290;28;20523;-72
2023/01/17 06:49:47;;;;;;;7.87;4.20;;;2.40;76.60;;;1.76;72.16;95318.16;5033815;28;20522;-72
2023/01/17 06:52:15;;;;;;;7.17;4.40;;;2.30;76.00;;;1.83;72.22;95310.06;5036662;28;20468;-72
2023/01/17 06:54:42;;;;;;;5.77;4.30;;;2.20;76.30;;;1.67;71.93;95300.88;5051160;28;20460;-72
2023/01/17 06:57:09;;;;;;;4.40;3.80;;;2.20;75.70;;;1.56;71.49;95294.47;5039265;28;20457;-71
2023/01/17 06:59:36;;;;;;;6.60;4.23;;;2.20;75.70;;;1.42;71.93;95309.78;5048377;28;20944;-74
2023/01/17 07:02:05;;;;;;;4.40;3.67;;;2.00;75.30;;;1.34;71.12;95300.28;5016721;28;20553;-72
2023/01/17 07:04:34;;;;;;;6.13;3.60;;;2.00;74.90;;;1.35;71.79;95309.88;5038263;28;20526;-71
2023/01/17 07:07:01;;;;;;;4.57;3.60;;;2.00;75.20;;;1.27;71.87;95316.31;5045479;28;20460;-71
2023/01/17 07:09:28;;;;;;;6.80;4.50;;;1.80;75.20;;;1.09;72.34;95311.81;5030977;28;20449;-71
2023/01/17 07:11:59;;;;;;;7.50;4.17;;;1.70;75.40;;;0.94;72.83;95335.28;5027808;28;20449;-73
2023/01/17 07:14:26;;;;;;;7.40;3.93;;;1.60;75.40;;;0.94;73.28;95308.69;5053303;28;20455;-73
2023/01/17 07:16:53;;;;;;;3.90;3.17;;;1.60;76.20;;;1.10;72.25;95334.69;5023223;28;20450;-72
2023/01/17 07:19:23;;;;;;;6.63;3.50;;;1.60;76.00;;;1.16;71.97;95329.56;5031499;28;20875;-71
2023/01/17 07:21:51;;;;;;;5.83;4.23;;;1.60;75.60;;;1.25;71.79;95328.19;5039248;28;20994;-71
2023/01/17 07:24:19;;;;;;;5.53;4.07;;;1.70;75.30;;;0.94;71.96;95274.13;5050726;28;20464;-71
2023/01/17 07:26:48;;;;;;;6.20;4.30;;;1.70;75.60;;;1.22;71.84;95329.47;5013895;28;20512;-71
2023/01/17 07:29:16;;;;;;;6.50;3.60;;;1.70;75.30;;;0.97;71.86;95309.06;5031372;28;20445;-72
2023/01/17 07:31:44;;;;;;;6.00;4.23;;;1.60;75.40;;;1.20;72.04;95333.38;5047031;28;20452;-71
2023/01/17 07:34:11;;;;;;;5.20;3.90;;;1.60;75.70;;;1.13;72.01;95328.13;5025768;28;20733;-71
2023/01/17 07:36:40;;;;;;;7.23;4.40;;;1.60;75.80;;;1.01;72.68;95320.09;5052270;28;20474;-72
2023/01/17 07:39:07;;;;;;;5.23;4.13;;;1.50;75.90;;;1.06;72.58;95320.22;5045754;28;20487;-73
2023/01/17 07:41:39;;;;;;;6.90;3.83;;;1.40;76.20;;;0.89;72.88;95327.97;5044174;28;20534;-71
2023/01/17 07:44:07;;;;;;;5.70;4.50;;;1.30;76.40;;;0.90;73.38;95323.47;5045956;28;20461;-72
2023/01/17 07:46:34;;;;;;;5.47;3.80;;;1.30;76.80;;;0.83;73.96;95320.88;5049654;28;21031;-71
2023/01/17 07:49:03;;;;;;;4.77;3.30;;;1.30;77.20;;;0.83;74.09;95319.06;5024625;28;20465;-72
2023/01/17 07:51:30;;;;;;;10.27;4.23;;;1.30;77.30;;;0.91;73.74;95315.28;5038584;28;20465;-72
2023/01/17 07:53:58;;;;;;;7.20;4.00;;;1.30;77.20;;;0.88;74.09;95309.59;5047047;28;20463;-71
2023/01/17 07:56:26;;;;;;;4.50;3.70;;;1.20;77.30;;;0.68;75.16;95307.94;5039853;28;20475;-72
2023/01/17 07:58:53;;;;;;;5.57;3.70;;;1.20;78.00;;;0.65;75.12;95308.38;5019515;28;20511;-71
2023/01/17 08:01:20;;;;;;;8.27;4.40;;;1.30;78.20;;;0.79;75.02;95301.91;5034382;28;20459;-70
2023/01/17 08:03:53;;;;;;;5.70;4.00;;;1.30;78.30;;;0.64;75.40;95285.47;5039567;28;20485;-72
2023/01/17 08:06:24;;;;;;;5.47;3.90;;;1.30;78.60;;;0.78;75.33;95302.13;5033495;28;20544;-73
2023/01/17 08:08:53;;;;;;;6.33;3.90;;;1.30;78.40;;;0.87;74.60;95303.44;5025258;28;20454;-72
2023/01/17 08:11:23;;;;;;;4.87;3.53;;;1.30;78.20;;;0.80;75.18;95298.19;5040243;28;21009;-72
2023/01/17 08:13:56;;;;;;;6.50;4.30;;;1.30;78.40;;;0.96;74.34;95296.00;5048821;28;20534;-70
2023/01/17 08:16:25;;;;;;;4.60;4.07;;;1.40;78.10;;;1.09;74.40;95287.88;5029632;28;20442;-70
2023/01/17 08:18:52;;;;;;;6.00;3.63;;;1.50;77.90;;;1.10;73.60;95292.16;5035405;28;21094;-76
2023/01/17 08:21:19;;;;;;;4.37;2.93;;;1.50;77.80;;;1.18;73.88;95298.22;5047580;28;20905;-70
2023/01/17 08:23:48;;;;;;;5.67;4.30;;;1.50;77.80;;;0.96;74.53;95303.97;5049160;28;20472;-70
2023/01/17 08:26:20;;;;;;;4.60;3.87;;;1.50;77.90;;;1.17;74.21;95301.91;5040720;28;20961;-71
2023/01/17 08:28:49;;;;;;;8.20;4.70;;;1.60;77.80;;;1.32;73.16;95299.69;5031637;28;20462;-72
2023/01/17 08:31:18;;;;;;;5.40;4.00;;;1.70;77.30;;;1.51;72.46;95304.97;5042079;28;20995;-71
2023/01/17 08:33:45;;;;;;;6.80;4.23;;;1.80;77.10;;;1.37;72.66;95291.84;5046318;28;20540;-71
2023/01/17 08:36:13;;;;;;;9.90;4.20;;;1.90;76.70;;;1.53;72.56;95287.75;5038092;28;20818;-70
2023/01/17 08:38:40;;;;;;;4.73;3.33;;;2.00;76.80;;;1.74;72.09;95290.13;5029639;28;20502;-72
2023/01/17 08:41:07;;;;;;;6.07;3.87;;;2.10;76.50;;;1.76;71.01;95285.41;5043091;28;21065;-71
2023/01/17 08:43:34;;;;;;;7.60;4.00;;;2.10;76.30;;;1.83;70.31;95289.59;5029919;28;21044;-71
2023/01/17 08:46:05;;;;;;;5.53;3.03;;;2.30;75.50;;;1.91;69.89;95299.13;5039604;28;20515;-71
2023/01/17 08:48:32;;;;;;;8.90;3.40;;;2.40;75.10;;;2.15;69.48;95295.69;5044533;28;21257;-71
2023/01/17 08:51:01;;;;;;;5.80;2.93;;;2.50;75.10;;;2.39;68.39;95299.22;5026795;28;20546;-72
2023/01/17 08:53:28;;;;;;;5.50;2.67;;;2.70;74.40;;;2.38;66.68;95294.91;5041549;28;20462;-72
2023/01/17 08:56:00;;;;;;;4.77;3.20;;;2.90;73.00;;;2.43;66.97;95292.38;5043718;28;20473;-70
2023/01/17 08:58:29;;;;;;;4.43;3.10;;;2.90;72.80;;;2.48;66.78;95279.16;5044438;28;20500;-71
2023/01/17 09:01:01;;;;;;;2.83;2.00;;;2.90;72.60;;;2.37;65.35;95288.75;5046213;28;20514;-70
2023/01/17 09:03:30;;;;;;;5.80;3.20;;;3.00;71.20;;;2.15;65.57;95299.16;5032574;28;20540;-71
2023/01/17 09:06:05;;;;;;;4.20;2.60;;;2.90;70.80;;;2.41;66.03;95303.25;5040935;28;20988;-70
2023/01/17 09:08:33;;;;;;;5.27;2.93;;;2.90;71.30;;;2.62;64.98;95305.56;5048341;28;20468;-72
2023/01/17 09:11:03;;;;;;;4.53;3.37;;;3.00;70.80;;;2.50;65.34;95301.06;5059788;28;20470;-71
2023/01/17 09:13:31;;;;;;;6.10;2.63;;;3.00;70.10;;;2.62;66.50;95305.56;5029597;28;20924;-71
2023/01/17 09:15:59;;;;;;;4.70;3.13;;;3.10;72.00;;;2.60;65.81;95300.50;5044263;28;20553;-71
2023/01/17 09:18:27;;;;;;;6.13;2.80;;;3.20;71.20;;;2.52;64.44;95301.66;5039728;28;20455;-71
2023/01/17 09:20:58;;;;;;;6.00;2.80;;;3.10;69.80;;;2.38;64.09;95300.25;5028876;28;20949;-72
2023/01/17 09:23:27;;;;;;;5.77;2.80;;;3.00;69.10;;;2.38;63.94;95305.56;5043507;28;20488;-71
2023/01/17 09:25:56;;;;;;;6.90;3.00;;;2.90;69.10;;;2.45;63.91;95300.16;5052926;28;20458;-71
2023/01/17 09:28:27;;;;;;;3.57;2.53;;;2.80;68.90;;;2.40;63.03;95292.84;5035003;28;20807;-71
2023/01/17 09:30:57;;;;;;;2.97;2.50;;;2.80;68.70;;;2.34;64.21;95289.22;5040395;28;20550;-71
2023/01/17 09:33:24;;;;;;;3.17;2.33;;;2.80;69.20;;;2.37;63.60;95287.97;5048329;28;20460;-72
2023/01/17 09:35:51;;;;;;;2.77;1.90;;;2.80;69.00;;;2.09;63.54;95292.09;5031497;28;20550;-70
2023/01/17 09:38:20;;;;;;;4.90;2.60;;;2.80;67.70;;;2.22;62.98;95294.56;5043518;28;22609;-70
2023/01/17 09:40:49;;;;;;;3.60;2.83;;;2.80;67.50;;;2.24;62.66;95295.13;5019624;28;20992;-71
2023/01/17 09:43:24;;;;;;;5.83;2.50;;;2.80;67.20;;;2.21;62.87;95300.94;5044481;28;21051;-71
2023/01/17 09:45:53;;;;;;;4.13;2.30;;;2.80;67.40;;;2.34;62.69;95299.88;5044870;28;20452;-71
2023/01/17 09:48:30;;;;;;;3.00;2.20;;;2.80;67.20;;;2.32;62.46;95303.81;5049258;28;20782;-71
2023/01/17 09:51:06;;;;;;;4.50;3.03;;;2.80;66.60;;;2.28;61.60;95271.50;5031783;28;20461;-71
2023/01/17 09:53:40;;;;;;;6.33;2.60;;;2.90;66.40;;;2.54;62.09;95288.91;5045267;28;20456;-71
2023/01/17 09:56:12;;;;;;;3.10;2.50;;;2.90;66.90;;;2.47;62.21;95296.19;5041972;28;20523;-71
2023/01/17 09:58:49;;;;;;;4.37;2.60;;;2.90;66.80;;;2.53;61.69;95303.28;5044016;28;20922;-70
2023/01/17 10:01:33;;;;;;;4.07;2.87;;;2.90;66.50;;;2.69;60.82;95306.28;5039440;28;20803;-71
2023/01/17 10:04:18;;;;;;;3.77;2.70;;;3.00;65.90;;;2.92;59.70;95305.47;5028824;28;20540;-73
2023/01/17 10:07:01;;;;;;;2.50;2.27;;;3.20;65.00;;;2.96;58.15;95305.81;5022125;28;20900;-72
2023/01/17 10:10:09;;;;;;;2.37;1.77;;;3.30;63.10;;;3.19;58.00;95288.16;5045843;28;20457;-71
2023/01/17 10:12:49;;;;;;;3.20;2.03;;;3.40;62.50;;;3.44;57.48;95281.69;4986882;28;20924;-71
2023/01/17 10:15:43;;;;;;;5.20;2.53;;;3.60;62.60;;;3.33;56.62;95230.78;5040702;28;20473;-70
2023/01/17 10:18:47;;;;;;;4.57;2.97;;;3.90;62.30;;;3.30;57.50;95279.31;5025971;28;20450;-72
2023/01/17 10:21:22;;;;;;;2.67;2.13;;;3.80;61.40;;;3.31;56.64;95275.59;5045396;28;20600;-72
2023/01/17 10:24:12;;;;;;;3.17;2.33;;;3.80;60.10;;;3.53;56.27;95275.75;5021708;28;20531;-71
2023/01/17 10:26:41;;;;;;;4.73;2.77;;;3.90;59.90;;;3.43;56.74;95256.84;5038149;28;20465;-71
2023/01/17 10:29:14;;;;;;;3.87;2.67;;;3.90;60.20;;;3.78;56.18;95263.91;5042756;28;20453;-71
2023/01/17 10:31:50;;;;;;;3.67;2.33;;;4.10;60.50;;;4.06;56.30;95264.13;5028943;28;20511;-71
2023/01/17 10:34:23;;;;;;;4.80;2.53;;;4.30;60.40;;;4.28;54.49;95266.06;5049729;28;20492;-71
2023/01/17 10:36:59;;;;;;;3.17;2.83;;;4.50;59.50;;;4.29;54.55;95257.00;5043478;28;20450;-71
2023/01/17 10:39:29;;;;;;;5.10;2.53;;;4.60;59.30;;;4.68;54.09;95259.72;5041153;28;20465;-72
2023/01/17 10:42:03;;;;;;;3.03;2.20;;;4.90;58.80;;;4.73;52.55;95250.97;5054082;28;20980;-71
2023/01/17 10:44:39;;;;;;;4.00;2.10;;;5.10;57.50;;;4.33;53.59;95242.09;5042106;28;20524;-72
2023/01/17 10:47:15;;;;;;;5.10;2.57;;;4.90;56.90;;;4.34;54.36;95233.03;5042583;28;20492;-72
2023/01/17 10:49:46;;;;;;;2.87;2.50;;;4.80;56.90;;;4.45;53.10;95244.69;5022449;28;20434;-72
2023/01/17 10:52:27;;;;;;;2.57;2.03;;;4.80;56.40;;;4.35;52.38;95245.34;5043363;28;20523;-71
2023/01/17 10:55:05;;;;;;;5.77;1.80;;;4.90;55.80;;;4.00;52.28;95249.88;5038753;28;20958;-72
2023/01/17 10:57:40;;;;;;;2.60;2.30;;;4.60;54.70;;;3.62;54.01;95244.13;5037357;28;20449;-71
2023/01/17 11:00:37;;;;;;;3.17;2.40;;;4.40;55.20;;;3.53;53.53;95234.88;5033178;28;20449;-71
2023/01/17 11:03:06;;;;;;;3.30;2.37;;;4.10;55.00;;;3.76;53.74;95227.81;5028474;28;20485;-71
2023/01/17 11:05:34;;;;;;;4.70;2.10;;;4.10;55.50;;;3.71;54.42;95233.03;5027274;28;20544;-72
2023/01/17 11:08:06;;;;;;;2.00;1.80;;;4.10;56.00;;;3.77;53.84;95219.53;5036316;28;20560;-72
2023/01/17 11:10:40;;;;;;;2.97;1.90;;;4.10;56.10;;;3.81;54.54;95227.91;5045589;28;20939;-72
2023/01/17 11:13:25;;;;;;;4.27;2.50;;;4.20;56.10;;;3.59;54.72;95223.25;5042152;28;20865;-70
2023/01/17 11:15:56;;;;;;;4.60;2.50;;;4.10;56.50;;;3.73;54.76;95217.63;5041927;28;20489;-71
2023/01/17 11:18:27;;;;;;;4.60;2.47;;;4.10;56.80;;;3.82;54.58;95214.31;5026565;28;20512;-71
2023/01/17 11:21:10;;;;;;;2.67;2.40;;;4.20;56.60;;;3.78;53.96;95204.34;5043549;28;21171;-70
2023/01/17 11:23:41;;;;;;;4.50;2.47;;;4.20;56.10;;;3.60;54.85;95198.19;5045118;28;20477;-71
2023/01/17 11:26:12;;;;;;;3.40;2.20;;;4.10;55.60;;;3.55;55.51;95195.41;5046522;28;20445;-72
2023/01/17 11:28:41;;;;;;;4.00;2.23;;;4.10;56.40;;;3.64;54.69;95201.16;5027107;28;20453;-71
2023/01/17 11:31:26;;;;;;;3.93;2.57;;;4.10;55.90;;;3.47;54.87;95193.13;5028668;28;21037;-71
2023/01/17 11:34:15;;;;;;;2.43;2.23;;;4.00;55.60;;;3.40;53.97;95186.06;5039955;28;20462;-73
2023/01/17 11:36:42;;;;;;;2.93;2.37;;;3.90;55.20;;;3.46;53.89;95181.63;5030009;28;20477;-71
2023/01/17 11:39:26;;;;;;;3.00;2.60;;;3.90;55.20;;;3.63;53.53;95170.97;5046463;28;20476;-73
2023/01/17 11:41:53;;;;;;;6.13;2.90;;;3.90;55.20;;;3.80;52.84;95164.84;5030136;28;20465;-72
2023/01/17 11:44:25;;;;;;;3.63;2.17;;;4.10;54.60;;;4.00;51.85;95164.38;5047929;28;20992;-73
2023/01/17 11:47:18;;;;;;;3.57;2.20;;;4.30;53.90;;;3.79;51.52;95153.38;5050260;28;20455;-71
2023/01/17 11:49:47;;;;;;;5.60;2.60;;;4.30;53.40;;;3.46;52.28;95092.75;5045312;28;20475;-71
2023/01/17 11:52:23;;;;;;;4.10;1.97;;;4.30;53.70;;;3.95;52.02;95151.72;5044294;28;21127;-71
2023/01/17 11:54:52;;;;;;;4.33;2.30;;;4.30;53.40;;;3.62;51.15;95126.66;5026619;28;20793;-71
2023/01/17 11:57:24;;;;;;;2.23;2.00;;;4.30;53.20;;;4.09;51.40;95146.06;5043643;28;20520;-70
2023/01/17 11:59:57;;;;;;;4.90;3.03;;;4.40;53.70;;;3.92;52.25;95152.22;5050185;28;20474;-72
2023/01/17 12:02:42;;;;;;;4.30;2.20;;;4.40;53.50;;;4.10;51.25;95153.00;5047580;28;20495;-71
2023/01/17 12:05:29;;;;;;;2.23;2.03;;;4.50;53.30;;;4.25;49.55;95144.44;5040336;28;20566;-71
2023/01/17 12:08:09;;;;;;;4.70;2.30;;;4.60;52.50;;;4.19;49.35;95146.22;5052889;28;20482;-71
2023/01/17 12:10:48;;;;;;;2.13;1.93;;;4.60;51.20;;;4.59;49.31;95143.53;5023808;28;20531;-71
2023/01/17 12:16:30;;;;;;;4.07;2.60;;;5.00;51.90;;;5.00;48.12;95130.63;5039975;28;20516;-71